sensor_id;sensor_type;location;lat;lon;timestamp;temperature;humidity
51619;DHT22;38518;53.164;5.430;2023-07-13T14:52:02;28.60;1.00
51619;DHT22;38518;53.164;5.430;2023-07-13T14:56:56;29.60;1.00
51619;DHT22;38518;53.164;5.430;2023-07-13T14:59:22;29.80;1.00
51619;DHT22;38518;53.164;5.430;2023-07-13T15:31:38;28.90;1.00
51619;DHT22;38518;53.164;5.430;2023-07-13T15:34:11;28.90;1.00
51619;DHT22;38518;53.164;5.430;2023-07-13T15:36:37;28.80;1.00
51619;DHT22;38518;53.164;5.430;2023-07-13T15:39:03;29.10;1.00
51619;DHT22;38518;53.164;5.430;2023-07-13T15:41:29;28.80;1.00
51619;DHT22;38518;53.164;5.430;2023-07-13T15:43:56;28.50;1.00
51619;DHT22;38518;53.164;5.430;2023-07-13T15:46:26;27.80;1.00
51619;DHT22;38518;53.164;5.430;2023-07-13T15:48:54;27.10;1.00
51619;DHT22;38518;53.164;5.430;2023-07-13T15:51:28;26.70;1.00
51619;DHT22;38518;53.164;5.430;2023-07-13T15:53:57;26.30;1.00
51619;DHT22;38518;53.164;5.430;2023-07-13T15:56:27;26.10;1.00
51619;DHT22;38518;53.164;5.430;2023-07-13T15:58:54;26.00;1.00
51619;DHT22;38518;53.164;5.430;2023-07-13T16:01:22;25.90;1.00
51619;DHT22;38518;53.164;5.430;2023-07-13T16:03:48;25.90;1.00
51619;DHT22;38518;53.164;5.430;2023-07-13T16:06:27;25.80;1.00
51619;DHT22;38518;53.164;5.430;2023-07-13T16:08:53;25.80;1.00
51619;DHT22;38518;53.164;5.430;2023-07-13T16:11:32;25.60;1.00
51619;DHT22;38518;53.164;5.430;2023-07-13T22:35:27;18.70;1.00
51619;DHT22;38518;53.164;5.430;2023-07-13T22:37:54;18.60;1.00
51619;DHT22;38518;53.164;5.430;2023-07-13T22:40:24;18.50;1.00
51619;DHT22;38518;53.164;5.430;2023-07-13T22:42:49;18.40;1.00
51619;DHT22;38518;53.164;5.430;2023-07-13T22:45:15;18.50;1.00
51619;DHT22;38518;53.164;5.430;2023-07-13T22:47:41;18.40;1.00
51619;DHT22;38518;53.164;5.430;2023-07-13T22:50:25;18.40;1.00
51619;DHT22;38518;53.164;5.430;2023-07-13T22:52:50;18.40;1.00
51619;DHT22;38518;53.164;5.430;2023-07-13T22:55:16;18.30;1.00
51619;DHT22;38518;53.164;5.430;2023-07-13T22:57:47;18.30;1.00
51619;DHT22;38518;53.164;5.430;2023-07-13T23:00:16;18.20;1.00
51619;DHT22;38518;53.164;5.430;2023-07-13T23:02:42;18.20;1.00
51619;DHT22;38518;53.164;5.430;2023-07-13T23:05:15;18.20;1.00
51619;DHT22;38518;53.164;5.430;2023-07-13T23:07:42;18.20;1.00
51619;DHT22;38518;53.164;5.430;2023-07-13T23:10:17;18.20;1.00
51619;DHT22;38518;53.164;5.430;2023-07-13T23:12:43;18.20;1.00
51619;DHT22;38518;53.164;5.430;2023-07-13T23:15:11;18.30;1.00
51619;DHT22;38518;53.164;5.430;2023-07-13T23:17:38;18.30;1.00
51619;DHT22;38518;53.164;5.430;2023-07-13T23:20:29;18.30;1.00
51619;DHT22;38518;53.164;5.430;2023-07-13T23:22:55;18.30;1.00
51619;DHT22;38518;53.164;5.430;2023-07-13T23:25:22;18.30;1.00
51619;DHT22;38518;53.164;5.430;2023-07-13T23:27:49;18.30;1.00
51619;DHT22;38518;53.164;5.430;2023-07-13T23:30:18;18.30;1.00
51619;DHT22;38518;53.164;5.430;2023-07-13T23:32:45;18.30;1.00
51619;DHT22;38518;53.164;5.430;2023-07-13T23:35:12;18.30;1.00
51619;DHT22;38518;53.164;5.430;2023-07-13T23:37:40;18.40;1.00
51619;DHT22;38518;53.164;5.430;2023-07-13T23:40:18;18.40;1.00
51619;DHT22;38518;53.164;5.430;2023-07-13T23:42:45;18.40;1.00
51619;DHT22;38518;53.164;5.430;2023-07-13T23:45:19;18.40;1.00
51619;DHT22;38518;53.164;5.430;2023-07-13T23:47:47;18.40;1.00
51619;DHT22;38518;53.164;5.430;2023-07-13T23:50:19;18.40;1.00
51619;DHT22;38518;53.164;5.430;2023-07-13T23:52:46;18.40;1.00
51619;DHT22;38518;53.164;5.430;2023-07-13T23:57:40;18.40;1.00
